Tiempo atmosférico en la estación meteorológica de Menorca Aeropuerto, Illes Balears (91 m.)



Fecha
DESCASC
Temp. máxima en grados centígrados (hora)
DESCASC
Temp. mínima en grados centígrados (hora)
DESCASC
Temp. media en grados centígrados
DESCASC
Racha de viento máxima en m/sg (hora)
DESCASC
Velocidad máxima media en intervalos de 10 minutos(hora)
DESCASC
Precipitaciones diarias en mm
DESCASC
Precipitaciones de 00:00 a 06:00 en mm
DESCASC
Precipitaciones de 06:00 a 12:00 en mm
DESCASC
Precipitaciones de 12:00 a 18:00 en mm
DESCASC
Precipitaciones de 18:00 a 24:00 en mm
DESCASC

Gráficas

Temp. máximas Temp. mínimas Temp. medias Precipitaciones Rachas de viento máximas Velocidades máximas media en intervalos de 10 minutos

Datos horarios

Fecha y hora oficial Temperatura (ºC) Velocidad del viento (km/h) Dirección del viento Racha (km/h) Dirección de racha Precipitación (mm) Presión (hPa) Tendencia (hPa) Humedad (%)
2019-10-21 23:00:00 16.7 25 Norte 39 Norte 1.1 1007.9 -1.3 93
2019-10-21 22:00:00 16.4 28 Norte 45 Norte 0 1008 -0.4 87
2019-10-21 21:00:00 15.7 29 Norte 39 Norte 0 1007.5 -0.1 90
2019-10-21 20:00:00 15.5 10 Noroeste 22 Norte 0 1009.2 0.9 92
2019-10-21 19:00:00 15.6 8 Noroeste 18 Norte 0.6 1008.4 -0.6 92
2019-10-21 18:00:00 16 11 Norte 30 Norte 0.2 1007.6 -1.6 91
2019-10-21 17:00:00 16.7 13 Norte 24 Norte 0.3 1008.3 -1.3 88
2019-10-21 16:00:00 17.4 7 Oeste 17 Norte 0 1009 -0.5 86
2019-10-21 15:00:00 16.1 11 Noroeste 26 Noroeste 1.5 1009.2 -0.2 89
2019-10-21 14:00:00 18.4 10 Noroeste 17 Oeste 0 1009.6 0.5 70
2019-10-21 13:00:00 18.8 6 Norte 9 Norte 0 1009.5 0.6 80
2019-10-21 12:00:00 18.8 7 Noroeste 22 Oeste 0 1009.4 1.3 82
2019-10-21 11:00:00 19.6 6 Oeste 17 Sudoeste 0 1009.1 2.4 81
2019-10-21 10:00:00 18.1 14 Oeste 24 Oeste 0 1008.9 2.6 85
2019-10-21 09:00:00 17.6 10 Sudoeste 17 Oeste 0 1008.1 1.8 88
2019-10-21 08:00:00 17.4 10 Oeste 18 Oeste 0 1006.7 1.3 89
2019-10-21 07:00:00 17.4 9 Oeste 26 Sudoeste 0.6 1006.3 1.2 93
2019-10-21 06:00:00 18.1 17 Oeste 37 Sudoeste 1 1006.3 1.5 92
2019-10-21 05:00:00 18 13 Sur 18 Sur 2.1 1005.4 0.2 92
2019-10-21 04:00:00 17.7 13 Sur 18 Sur 1.4 1005.1 -1 91
2019-10-21 03:00:00 18.1 5 Nordeste 15 Sudeste 0 1004.8 -1.4 93
2019-10-21 02:00:00 18.5 12 Sudeste 21 Sur 0.6 1005.2 -1.3 93
2019-10-21 01:00:00 18.6 11 Sur 18 Sur 0.3 1006.1 2.2 93
2019-10-21 00:00:00 18.4 10 Sur 17 Sur 0.1 1006.2 1.9 93
2019-10-20 23:00:00 18.6 9 Sur 17 Noroeste 0.9 1006.5 3.9 94
2019-10-20 22:00:00 18.9 14 Noroeste 39 Oeste 1.9 1003.9 1.9 93
2019-10-20 21:00:00 21.4 16 Sudoeste 24 Sudoeste 0 1004.3 2.8 85
2019-10-20 20:00:00 21.3 9 Sur 17 Sudoeste 0 1002.6 1.2 85
2019-10-20 19:00:00 21.7 14 Sudoeste 22 Sudoeste 0 1002 1.3 84
2019-10-20 18:00:00 22.5 15 Sudoeste 22 Sudoeste 0 1001.5 0.8 82
2019-10-20 17:00:00 22.6 17 Sur 28 Sudoeste 0 1001.4 0.2 82
2019-10-20 16:00:00 22.9 17 Sur 32 Sur 0 1000.7 -0.2 80
2019-10-20 15:00:00 23.3 18 Sur 35 Sur 0 1000.7 -0.3 75
2019-10-20 14:00:00 23.8 24 Sur 39 Sur 0 1001.2 0.5 69
2019-10-20 13:00:00 25.2 31 Sur 41 Sur 0 1000.9 0.7 63
2019-10-20 12:00:00 24.6 25 Sur 37 Sur 0 1001 1.6 66
2019-10-20 11:00:00 23.5 23 Sudoeste 35 Sur 0 1000.7 1.8 65
2019-10-20 10:00:00 22.7 18 Sudoeste 28 Sudoeste 0 1000.2 1.2 68
2019-10-20 09:00:00 21 14 Sur 22 Sur 0 999.4 0.4 80
2019-10-20 08:00:00 19.6 16 Sur 22 Sur 0 998.9 0.3 88
2019-10-20 07:00:00 19.4 10 Sur 17 Sur 0 999 -0.1 92
2019-10-20 06:00:00 20.1 12 Sur 22 Sur 0 999 -0.5 91
2019-10-20 05:00:00 20.2 15 Sur 24 Sur 0 998.6 -1.1 90
2019-10-20 04:00:00 20.5 17 Sur 26 Sur 0 999.1 -1.2 87
2019-10-20 03:00:00 20.2 14 Sur 22 Sur 0 999.5 -1.2 87
2019-10-20 02:00:00 20.3 16 Sur 26 Sur 0 999.7 -0.9 84
2019-10-20 01:00:00 20.3 17 Sur 26 Sur 0 1000.3 -0.1 84
2019-10-20 00:00:00 19.7 16 Sur 22 Sur 0 1000.7 0.1 83
2019-10-19 23:00:00 19.1 13 Sur 18 Sur 0 1000.6 -0.1 81
2019-10-19 22:00:00 19.6 11 Sudoeste 21 Sur 0 1000.4 -0.1 77
2019-10-19 21:00:00 20.3 14 Sudoeste 26 Sudoeste 0 1000.6 0 75
2019-10-19 20:00:00 20.6 15 Sudoeste 28 Sur 0 1000.7 0.2 76
2019-10-19 19:00:00 21.3 20 Sudoeste 33 Sur 0 1000.5 -0.3 77
2019-10-19 18:00:00 22.5 23 Sur 33 Sur 0 1000.6 -0.7 72
2019-10-19 17:00:00 23.3 26 Sur 37 Sudoeste 0 1000.5 -1.3 67
2019-10-19 16:00:00 23.9 27 Sur 39 Sur 0 1000.8 -1.6 63
2019-10-19 15:00:00 24.1 27 Sur 39 Sur 0 1001.3 -1.7 61
2019-10-19 14:00:00 24 26 Sudoeste 39 Sudoeste 0 1001.8 -1.2 63
2019-10-19 13:00:00 24.1 26 Sur 41 Sur 0 1002.4 -0.7 64
2019-10-19 12:00:00 23.3 25 Sur 39 Sur 0 1003 0 71
2019-10-19 11:00:00 23.7 28 Sur 37 Sur 0 1003 0.3 68
2019-10-19 10:00:00 22.1 23 Sur 35 Sur 0 1003.1 0.5 74
2019-10-19 09:00:00 21.2 21 Sudoeste 28 Sur 0 1003 0.2 80
2019-10-19 08:00:00 20.1 18 Sur 26 Sur 0 1002.7 -0.3 85
2019-10-19 07:00:00 20.2 18 Sur 26 Sudoeste 0 1002.6 -0.9 86
2019-10-19 06:00:00 20 13 Sur 18 Sur 0 1002.8 -1.2 89
2019-10-19 05:00:00 19.9 12 Sur 21 Sur 0 1003 -1.3 87
2019-10-19 04:00:00 20.5 12 Sudoeste 24 Sur 0 1003.5 -1 88
2019-10-19 03:00:00 20.7 13 Sudoeste 22 Sudoeste 0 1004 -0.9 89
2019-10-19 02:00:00 20.8 13 Sudoeste 21 Sudoeste 0 1004.3 -0.9 89
2019-10-19 01:00:00 20.8 13 Sudoeste 26 Sudoeste 0 1004.5 -0.8 88
2019-10-19 00:00:00 21 17 Sudoeste 26 Sudoeste 0 1004.9 -0.1 88
2019-10-18 23:00:00 21.2 16 Sudoeste 26 Sur 0 1005.2 0.2 87
2019-10-18 22:00:00 21.2 16 Sudoeste 28 Sudoeste 0 1005.3 0.4 88
2019-10-18 21:00:00 21.4 18 Sudoeste 30 Sudoeste 0 1005 0 83
2019-10-18 20:00:00 21.3 16 Sudoeste 26 Sur 0 1005 -0.5 85
2019-10-18 19:00:00 21.4 15 Sur 24 Sur 0 1004.9 -0.5 82
2019-10-18 18:00:00 22.3 16 Sur 32 Sudoeste 0 1005 -0.7 76
2019-10-18 17:00:00 23.2 23 Sudoeste 32 Sudoeste 0 1005.5 -1 72
2019-10-18 16:00:00 22.9 22 Sudoeste 33 Sudoeste 0 1005.4 -1.6 71
2019-10-18 15:00:00 24 23 Sudoeste 33 Sur 0 1005.7 -1.6 64
2019-10-18 14:00:00 22.7 21 Sudoeste 30 Sudoeste 0 1006.5 -0.9 69
2019-10-18 13:00:00 23.9 21 Sudoeste 30 Sur 0 1007 -0.3 65
2019-10-18 12:00:00 23.5 19 Sur 30 Sur 0 1007.3 0.6 66
2019-10-18 11:00:00 23.1 17 Sur 26 Sudoeste 0 1007.4 0.9 67
2019-10-18 10:00:00 22.3 15 Sudoeste 24 Sudoeste 0 1007.3 0.7 71
2019-10-18 09:00:00 20.7 12 Sudoeste 17 Sudoeste 0 1006.7 0.2 77
2019-10-18 08:00:00 19.1 9 Sudoeste 18 Sudoeste 0 1006.5 -0.1 82
2019-10-18 07:00:00 19.4 11 Sudoeste 17 Sudoeste 0 1006.6 -0.1 81
2019-10-18 06:00:00 19.6 12 Sudoeste 18 Sudoeste 0 1006.5 -0.9 80
2019-10-18 05:00:00 19.7 13 Sudoeste 22 Sudoeste 0 1006.6 -1 79
2019-10-18 04:00:00 19.6 13 Sudoeste 21 Sudoeste 0 1006.7 -1.1 79
2019-10-18 03:00:00 19.9 14 Sudoeste 24 Sudoeste 0 1007.4 -0.7 78
2019-10-18 02:00:00 20.1 15 Sudoeste 26 Sudoeste 0 1007.6 -0.5 76
2019-10-18 01:00:00 20.1 16 Sudoeste 26 Sudoeste 0 1007.8 0.1 77
2019-10-18 00:00:00 20.2 16 Sudoeste 26 Sudoeste 0 1008.1 0.7 76
2019-10-17 23:00:00 20.1 17 Sudoeste 26 Sudoeste 0 1008.1 0.9 75
2019-10-17 22:00:00 20.1 13 Sudoeste 28 Sudoeste 0 1007.7 0.9 73
2019-10-17 21:00:00 20.2 14 Sudoeste 26 Sudoeste 0 1007.4 0.5 71
2019-10-17 20:00:00 20.2 17 Sur 28 Sur 0 1007.2 0.1 71
2019-10-17 19:00:00 20.6 15 Sudoeste 28 Sur 0 1006.8 -0.5 69
2019-10-17 18:00:00 22 17 Sudoeste 30 Sur 0 1006.9 -0.7 61
2019-10-17 17:00:00 23.1 21 Sudoeste 32 Sudoeste 0 1007.1 -0.9 56
2019-10-17 16:00:00 23.4 21 Sur 33 Sur 0 1007.3 -1.2 56
2019-10-17 15:00:00 23.5 21 Sur 32 Sur 0 1007.6 -1.1 58
2019-10-17 14:00:00 22.9 19 Sudoeste 32 Sudoeste 0 1008 -0.6 58
2019-10-17 13:00:00 22.4 19 Sudoeste 30 Sur 0 1008.5 0 59
2019-10-17 12:00:00 22.7 17 Sur 28 Sur 0 1008.7 0.5 57
2019-10-17 11:00:00 22.6 19 Sur 30 Sur 0 1008.6 0.9 56
2019-10-17 10:00:00 21.6 18 Sur 26 Sur 0 1008.5 1.1 60
2019-10-17 09:00:00 19.7 13 Sur 21 Sur 0 1008.2 0.8 68
2019-10-17 08:00:00 17.9 10 Sudoeste 17 Sudoeste 0 1007.7 0 75
2019-10-17 07:00:00 17.6 8 Sur 15 Sur 0 1007.4 -0.6 77
2019-10-17 06:00:00 17.4 10 Sudoeste 15 Sudoeste 0 1007.4 -0.8 76
2019-10-17 05:00:00 17.4 10 Sudoeste 15 Sudoeste 0 1007.7 -0.7 75
2019-10-17 04:00:00 18.2 9 Sudoeste 17 Sudoeste 0 1008 -0.6 72
2019-10-17 03:00:00 18.8 10 Sudoeste 18 Sudoeste 0 1008.2 -0.5 71
2019-10-17 02:00:00 19.2 11 Sudoeste 18 Sudoeste 0 1008.4 0.1 68
2019-10-17 01:00:00 19.4 11 Sudoeste 24 Sudoeste 0 1008.6 0.5 68
2019-10-17 00:00:00 19.6 15 Sudoeste 28 Sudoeste 0 1008.7 0.7 67
2019-10-16 23:00:00 19.4 14 Sudoeste 30 Sudoeste 0 1008.3 0.2 65
2019-10-16 22:00:00 19.6 16 Sudoeste 28 Sur 0 1008.1 0.2 62
2019-10-16 21:00:00 19.6 16 Sudoeste 28 Sudoeste 0 1008 -0.2 55
2019-10-16 20:00:00 19.3 16 Sur 28 Sur 0 1008.1 -0.1 58
2019-10-16 19:00:00 19.9 18 Sur 30 Sur 0 1007.9 -0.6 56
2019-10-16 18:00:00 21.7 21 Sur 32 Sur 0 1008.2 -0.8 51
2019-10-16 17:00:00 22.4 18 Sudoeste 28 Sudoeste 0 1008.2 -1.3 44
2019-10-16 16:00:00 22.7 17 Sur 28 Sudoeste 0 1008.5 -1.8 42
2019-10-16 15:00:00 22.5 16 Sudoeste 28 Sur 0 1009 -1.7 45
2019-10-16 14:00:00 22.4 15 Sudoeste 28 Sudoeste 0 1009.5 -1.2 47
2019-10-16 13:00:00 22.1 14 Oeste 26 Sudoeste 0 1010.3 -0.1 47
2019-10-16 12:00:00 22 13 Sudoeste 26 Sudoeste 0 1010.7 0.5 47
2019-10-16 11:00:00 20.8 13 Oeste 22 Oeste 0 1010.7 0.9 54
2019-10-16 10:00:00 19.5 10 Sudoeste 15 Oeste 0 1010.4 0.6 61
2019-10-16 09:00:00 16.1 7 Oeste 15 Oeste 0 1010.2 0.4 75
2019-10-16 08:00:00 12.3 7 Oeste 9 Oeste 0 1009.8 0.1 85
2019-10-16 07:00:00 12.7 5 Oeste 9 Oeste 0 1009.8 0.1 86
2019-10-16 06:00:00 11.3 7 Sudoeste 11 Oeste 0 1009.8 -0.2 85
2019-10-16 05:00:00 11.6 0 Calma 5 Noroeste 0 1009.7 -0.4 85
2019-10-16 04:00:00 11.8 0 Calma -- -- 0 1009.7 -0.4 83
2019-10-16 03:00:00 12.3 5 Norte -- -- 0 1010 -0.1 81
2019-10-16 02:00:00 12.1 7 Noroeste 11 Noroeste 0 1010.1 0.1 80
2019-10-16 01:00:00 13.1 6 Noroeste 13 Noroeste 0 1010.1 0.3 75
2019-10-16 00:00:00 14.3 9 Noroeste 13 Noroeste 0 1010.1 0.6 71
2019-10-15 23:00:00 14 8 Noroeste 11 Norte 0 1010 0.9 74
2019-10-15 22:00:00 14.4 9 Noroeste 11 Noroeste 0 1009.8 1.5 74
2019-10-15 21:00:00 15.4 7 Noroeste 9 Noroeste 0 1009.5 1.7 69
2019-10-15 20:00:00 16.5 8 Noroeste 17 Noroeste 0 1009.1 1.8 62
2019-10-15 19:00:00 18.5 9 Noroeste 24 Oeste 0 1008.3 1.1 53
2019-10-15 18:00:00 20.8 12 Noroeste 26 Oeste 0 1007.8 1 44
2019-10-15 17:00:00 21.4 15 Noroeste 32 Oeste 0 1007.3 0.9 40
2019-10-15 16:00:00 21.8 22 Oeste 42 Oeste 0 1007.2 0.6 39
2019-10-15 15:00:00 21.9 21 Oeste 39 Noroeste 0 1006.8 0.6 39
2019-10-15 14:00:00 21.9 24 Oeste 41 Oeste 0 1006.4 0.7 46
2019-10-15 13:00:00 21.5 26 Oeste 42 Oeste 0 1006.6 1.6 50
2019-10-15 12:00:00 21.5 24 Oeste 42 Noroeste 0 1006.2 2.2 50
2019-10-15 11:00:00 21.1 24 Oeste 41 Noroeste 0 1005.7 3 52
2019-10-15 10:00:00 20.1 20 Noroeste 35 Noroeste 0 1005 3.4 59
2019-10-15 09:00:00 19.1 18 Noroeste 32 Oeste 0 1004 2.9 68
2019-10-15 08:00:00 19.1 15 Noroeste 32 Noroeste 0 1002.7 2.2 84
2019-10-15 07:00:00 20.4 14 Oeste 26 Oeste 0 1001.6 0.6 81
2019-10-15 06:00:00 21.1 18 Oeste 37 Sudoeste 0 1001.1 -0.7 83
2019-10-15 05:00:00 21.3 20 Sudoeste 46 Sudoeste 0 1000.5 -1.5 87
2019-10-15 04:00:00 21.7 30 Sudoeste 46 Sudoeste 0 1001 -1.7 85
2019-10-15 03:00:00 20.7 24 Sur 33 Sur 0 1001.8 -0.9 89
2019-10-15 02:00:00 19.9 15 Sudeste 26 Sudeste 0 1002 -1.3 86
2019-10-15 01:00:00 20.3 16 Sudeste 30 Sudeste 0 1002.7 -1 88
2019-10-15 00:00:00 20.2 15 Sudeste 30 Sudeste 0.7 1002.7 -0.7 83
2019-10-14 23:00:00 21.8 21 Este 30 Norte 1.2 1003.3 -0.1 95
2019-10-14 22:00:00 21.5 0 Calma 9 Oeste 0 1003.7 1.4 93
2019-10-14 21:00:00 21.8 4 Sudoeste 17 Sur 0 1003.4 1.4 93
2019-10-14 20:00:00 22.5 14 Sur 26 Sur 0 1003.4 0.7 92
2019-10-14 19:00:00 22.9 22 Sur 30 Sur 0 1002.3 -0.8 87
2019-10-14 18:00:00 23.5 22 Sudeste 33 Sur 0 1002 -1.4 85
2019-10-14 17:00:00 24.2 24 Sur 35 Sur 0 1002.7 -1.3 81
2019-10-14 16:00:00 25.9 24 Sudeste 35 Sudeste 0 1003.1 -1.8 69
2019-10-14 15:00:00 25.9 27 Sudeste 39 Este 0 1003.4 -2 67
2019-10-14 14:00:00 26.5 27 Sudeste 35 Sudeste 0 1004 -1.7 64
2019-10-14 13:00:00 25.9 22 Sudeste 37 Sudeste 0 1004.9 -0.6 69
2019-10-14 12:00:00 25.4 19 Sudeste 39 Sudeste 0 1005.4 0 72
2019-10-14 11:00:00 24.6 18 Sudeste 32 Este 0 1005.7 0.7 80
2019-10-14 10:00:00 23.4 15 Sudeste 35 Este 0 1005.5 0.3 91
2019-10-14 09:00:00 21.4 8 Sudeste 18 Sudeste 0 1005.4 -0.1 98
2019-10-14 08:00:00 20.2 10 Sudeste 17 Este 0 1005 -0.7 98
2019-10-14 07:00:00 20.1 9 Sur 13 Sur 0 1005.2 -0.5 98
2019-10-14 06:00:00 20.8 10 Sur 15 Sur 0 1005.5 -0.6 98
2019-10-14 05:00:00 20.9 11 Sur 17 Sur 0 1005.7 -0.8 98
2019-10-14 04:00:00 21 12 Sur 15 Sudeste 0 1005.7 -0.9 98
2019-10-14 03:00:00 20.8 10 Sur 13 Sur 0 1006.1 -0.9 98
2019-10-14 02:00:00 20.8 9 Sudeste 15 Sudeste 0 1006.5 -0.5 97
2019-10-14 01:00:00 21.6 12 Sudeste 24 Sudeste 0 1006.6 -0.4 97
2019-10-14 00:00:00 21.7 13 Sudeste 30 Sudeste 0 1007 -0.3 96
2019-10-13 23:00:00 21.7 14 Este 21 Sudeste 0 1007 -0.2 96
2019-10-13 22:00:00 21.4 13 Este 30 Este 0 1007 0.1 94
2019-10-13 21:00:00 21.7 12 Este 18 Este 0 1007.3 0.3 92
2019-10-13 20:00:00 21.8 13 Este 24 Este 0 1007.2 0.5 91
2019-10-13 19:00:00 22.2 14 Este 28 Este 0 1006.9 0 86
2019-10-13 18:00:00 23.5 19 Este 26 Este 0 1007 -0.1 78
2019-10-13 17:00:00 24.4 20 Este 33 Este 0 1006.7 -1 74
2019-10-13 16:00:00 24.1 21 Sudeste 45 Este 0 1006.9 -1.5 74
2019-10-13 15:00:00 24.8 25 Este 37 Este 0 1007.1 -1.5 71
2019-10-13 14:00:00 24.2 24 Este 35 Este 0 1007.7 -1 71
2019-10-13 13:00:00 23.9 23 Este 41 Este 0 1008.4 0.1 74
2019-10-13 12:00:00 23.9 23 Este 37 Este 0 1008.6 0.7 73
2019-10-13 11:00:00 23.3 23 Este 45 Este 0 1008.7 1 77
2019-10-13 10:00:00 22.2 20 Este 39 Este 0 1008.3 0.6 82
2019-10-13 09:00:00 21.2 15 Este 33 Norte 0 1007.9 0.2 85
2019-10-13 08:00:00 20.5 13 Sudeste 22 Este 0 1007.7 -0.3 87
2019-10-13 07:00:00 20.5 14 Sudeste 22 Sudeste 0 1007.7 -0.5 88
2019-10-13 06:00:00 20.4 13 Sudeste 21 Sudeste 0 1007.7 -0.7 89
2019-10-13 05:00:00 20.6 12 Sudeste 22 Sudeste 0 1008 -0.8 88
2019-10-13 04:00:00 21 16 Sudeste 26 Sudeste 0 1008.2 -1.1 86
2019-10-13 03:00:00 20.7 18 Sudeste 28 Sudeste 0 1008.4 -1.4 89
2019-10-13 02:00:00 20.6 14 Sudeste 21 Sudeste 0 1008.8 -1 89
2019-10-13 01:00:00 20.2 13 Sudeste 22 Sudeste 0 1009.3 -0.3 90
2019-10-13 00:00:00 20.1 12 Sudeste 22 Sudeste 0 1009.8 0 89
2019-10-12 23:00:00 20.4 14 Sudeste 22 Este 0 1009.8 0.1 88
2019-10-12 22:00:00 20.6 14 Este 35 Sur 0 1009.6 0.5 87
2019-10-12 21:00:00 20.7 12 Sudeste 26 Sudeste 0 1009.8 0.9 85
2019-10-12 20:00:00 20.7 11 Sudeste 30 Sudeste 0 1009.7 0.5 84
2019-10-12 19:00:00 21.3 15 Sudeste 30 Sudeste 0 1009.1 -0.7 80
2019-10-12 18:00:00 22.6 24 Este 35 Sudeste 0 1008.9 -1 74
2019-10-12 17:00:00 23.1 20 Sudeste 30 Sudeste 0 1009.2 -1.5 71
2019-10-12 16:00:00 23.3 21 Sudeste 32 Este 0 1009.8 -1.4 69
2019-10-12 15:00:00 24 22 Sudeste 37 Norte 0 1009.9 -1.4 65
2019-10-12 14:00:00 23.4 21 Sudeste 37 Sudeste 0 1010.7 -0.7 65
2019-10-12 13:00:00 24 18 Sudeste 33 Sudeste 0 1011.2 0 63
2019-10-12 12:00:00 22.6 20 Sudeste 42 Sudeste 0 1011.3 0.7 69
2019-10-12 11:00:00 21.7 19 Sudeste 33 Sudeste 0 1011.4 1.1 72
2019-10-12 10:00:00 21.7 17 Sudeste 26 Sudeste 0 1011.2 1.1 72
2019-10-12 09:00:00 20.4 14 Sudeste 28 Sur 0 1010.6 0.3 78
2019-10-12 08:00:00 18.9 12 Sudeste 33 Sudeste 0 1010.3 0.3 81
2019-10-12 07:00:00 19.1 16 Sudeste 22 Sudeste 0 1010.1 -0.2 81
2019-10-12 06:00:00 19.2 14 Sudeste 24 Sudeste 0 1010.3 -0.8 78
2019-10-12 05:00:00 19.4 17 Este 28 Sudeste 0 1010 -1.5 78
2019-10-12 04:00:00 19.3 15 Sudeste 22 Este 0 1010.3 -1.4 80
2019-10-12 03:00:00 19.4 15 Sudeste 24 Sudeste 0 1011.1 -0.9 81
2019-10-12 02:00:00 19.6 16 Sudeste 22 Sudeste 0 1011.5 -0.5 81
2019-10-12 01:00:00 19.4 15 Sudeste 26 Este 0 1011.7 -0.2 82
2019-10-12 00:00:00 19.6 14 Sudeste 22 Sudeste 0 1012 0.5 81
2019-10-11 23:00:00 19.6 14 Sudeste 21 Sudeste 0 1012 0.7 82
2019-10-11 22:00:00 19.6 13 Sudeste 30 Sudeste 0 1011.9 0.5 83
2019-10-11 21:00:00 19.5 12 Sudeste 24 Sudeste 0 1011.5 0.1 83
2019-10-11 20:00:00 20.2 11 Sudeste 21 Sudeste 0 1011.3 -0.2 81
2019-10-11 19:00:00 21.2 14 Sudeste 33 Este 0 1011.4 -0.3 76
2019-10-11 18:00:00 22.8 15 Sur 30 Sur 0 1011.4 -0.7 69
2019-10-11 17:00:00 24 16 Sur 24 Sur 0 1011.5 -1.2 64
2019-10-11 16:00:00 24 16 Sur 28 Sur 0 1011.7 -1.5 62
2019-10-11 15:00:00 24.1 18 Sur 30 Sur 0 1012.1 -1.3 62
2019-10-11 14:00:00 24.2 17 Sur 28 Sudeste 0 1012.7 -1 60
2019-10-11 13:00:00 23.9 17 Sur 32 Sudeste 0 1013.2 -0.3 61
2019-10-11 12:00:00 23.9 17 Sur 32 Sudeste 0 1013.4 0.5 59
2019-10-11 11:00:00 23.2 15 Sur 26 Sur 0 1013.7 1.4 61
2019-10-11 10:00:00 22.3 10 Sudeste 28 Sudeste 0 1013.5 1.3 63
2019-10-11 09:00:00 19.7 6 Este 15 Sudeste 0 1012.9 0.4 73
2019-10-11 08:00:00 17.3 8 Sudeste 15 Sudeste 0 1012.3 0.2 79
2019-10-11 07:00:00 15.7 4 Sudeste -- -- 0 1012.2 0 88
2019-10-11 06:00:00 14 -- -- -- -- 0 1012.5 -0.1 88
2019-10-11 05:00:00 14 0 Calma 4 Sudeste 0 1012.1 -0.8 85
2019-10-11 04:00:00 15.3 0 Calma -- -- 0 1012.2 -0.8 86
2019-10-11 03:00:00 14.2 0 Calma -- -- 0 1012.6 -0.4 85
2019-10-11 02:00:00 14.3 0 Calma -- -- 0 1012.9 -0.1 85
2019-10-11 01:00:00 14.7 0 Calma -- -- 0 1013 0.2 82
2019-10-11 00:00:00 14.9 0 Calma -- -- 0 1013 0.6 82
2019-10-10 23:00:00 15.3 0 Calma -- -- 0 1013 1.2 80
2019-10-10 22:00:00 16.4 0 Calma 5 Noroeste 0 1012.8 1.2 75
2019-10-10 21:00:00 17.6 -- -- -- -- 0 1012.4 0.9 71
2019-10-10 20:00:00 19.4 7 Nordeste 18 Nordeste 0 1011.8 0.1 64
2019-10-10 19:00:00 19.6 14 Nordeste 24 Nordeste 0 1011.6 -0.2 63
2019-10-10 18:00:00 20.9 14 Nordeste 28 Nordeste 0 1011.5 -0.4 59
2019-10-10 17:00:00 21.2 16 Nordeste 32 Nordeste 0 1011.7 -0.5 59
2019-10-10 16:00:00 21.8 19 Nordeste 35 Nordeste 0 1011.8 -0.6 56
2019-10-10 15:00:00 21.9 24 Nordeste 37 Nordeste 0 1011.9 -0.7 56
2019-10-10 14:00:00 22.2 24 Nordeste 39 Norte 0 1012.2 -0.4 56
2019-10-10 13:00:00 22.3 28 Nordeste 41 Nordeste 0 1012.4 0.1 54
2019-10-10 12:00:00 22.2 30 Nordeste 39 Nordeste 0 1012.6 1.3 52
2019-10-10 11:00:00 21.8 26 Nordeste 33 Nordeste 0 1012.6 2 56
2019-10-10 10:00:00 21.3 22 Nordeste 32 Nordeste 0 1012.3 2 58
2019-10-10 09:00:00 19.8 18 Nordeste 24 Nordeste 0 1011.3 1.3 73
2019-10-10 08:00:00 18.1 13 Nordeste 21 Nordeste 0 1010.6 0.6 79
2019-10-10 07:00:00 18.2 15 Nordeste 18 Nordeste 0 1010.3 0.5 78
2019-10-10 06:00:00 17.1 13 Nordeste -- -- 0 1010 -0.1 87
2019-10-10 05:00:00 17 12 Norte 17 Norte 0 1010 -0.2 89
2019-10-10 04:00:00 18 13 Norte 21 Nordeste 0 1009.8 -0.4 87
2019-10-10 03:00:00 19.5 13 Nordeste 21 Nordeste 0 1010.1 0.2 85
2019-10-10 02:00:00 19.6 14 Nordeste 22 Nordeste 0 1010.2 0.4 86
2019-10-10 01:00:00 17.4 10 Norte 15 Norte 0 1010.2 0.8 87
2019-10-10 00:00:00 17.2 9 Norte -- -- 0 1009.9 0.8 85
2019-10-09 23:00:00 19 8 Este 9 Este 0 1009.8 1 80
2019-10-09 22:00:00 19.2 6 Este 13 Este 0 1009.4 1.3 76
2019-10-09 21:00:00 19.7 8 Nordeste 9 Nordeste 0 1009.1 1.6 73
2019-10-09 20:00:00 -- 8 Este 21 Este 0 1008.8 1.2 --
2019-10-09 19:00:00 22.1 7 Sur 15 Sur 0 1008.1 0.9 60
2019-10-09 18:00:00 23.8 10 Sur 17 Sur 0 1007.5 -0.1 52
2019-10-09 17:00:00 24.3 9 Sudoeste 24 Sur 0 1007.6 -0.4 50
2019-10-09 16:00:00 24.3 14 Sur 32 Sudeste 0 1007.2 -1.4 52
2019-10-09 15:00:00 24.3 12 Sur 24 Sur 0 1007.6 -1.2 52
2019-10-09 14:00:00 24.3 12 Sur 24 Sur 0 1008 -0.8 53
2019-10-09 13:00:00 24.2 12 Sur 28 Este 0 1008.6 0.1 55
2019-10-09 12:00:00 24 14 Sur 24 Sur 0 1008.8 0.4 59
2019-10-09 11:00:00 23.5 13 Sur 22 Sur 0 1008.8 0.6 63
2019-10-09 10:00:00 23 14 Sur 22 Sur 0 1008.5 0.4 65
2019-10-09 09:00:00 21.5 12 Sur 17 Sur 0 1008.4 0.3 73
2019-10-09 08:00:00 18.9 10 Sur 13 Sudoeste 0 1008.2 0 84
2019-10-09 07:00:00 18.6 9 Sur 15 Sudoeste 0 1008.1 -0.1 83
2019-10-09 06:00:00 19.1 9 Sur 17 Sur 0 1008.1 -0.5 80
2019-10-09 05:00:00 19.1 10 Sur 18 Sur 0 1008.2 -0.7 80
2019-10-09 04:00:00 19.2 13 Sur 18 Sudoeste 0 1008.2 -0.9 79
2019-10-09 03:00:00 19.3 13 Sur 22 Sudoeste 0 1008.6 -0.8 79
2019-10-09 02:00:00 19 12 Sudoeste 17 Sudoeste 0 1008.9 -0.3 79
2019-10-09 01:00:00 18.9 11 Sur 17 Sur 0 1009.1 -0.2 77
2019-10-09 00:00:00 18.2 10 Sur 15 Sur 0 1009.4 0.1 78
2019-10-08 23:00:00 18.2 9 Sur 13 Sur 0 1009.2 0.3 77
2019-10-08 22:00:00 17.8 8 Sudoeste 13 Sur 0 1009.3 0.5 78
2019-10-08 21:00:00 17.6 6 Sudoeste 9 Sudoeste 0 1009.3 0.8 76
2019-10-08 20:00:00 19 5 Sudoeste 15 Sudoeste 0 1008.9 0.1 70
2019-10-08 19:00:00 21.4 9 Sudoeste 21 Sudoeste 0 1008.8 -0.3 61
2019-10-08 18:00:00 22.6 14 Sudoeste 24 Sudoeste 0 1008.5 -1.2 56
2019-10-08 17:00:00 23.2 14 Sudoeste 26 Sudoeste 0 1008.8 -1 55
2019-10-08 16:00:00 22.7 14 Sudoeste 22 Sudoeste 0 1009.1 -1.3 58
2019-10-08 15:00:00 21.6 12 Sudoeste 22 Sudoeste 0 1009.7 -0.9 61
2019-10-08 14:00:00 22.6 15 Sudoeste 26 Sudoeste 0 1009.8 -0.7 56
2019-10-08 13:00:00 24 15 Oeste 22 Sudoeste 0 1010.4 0.1 51
2019-10-08 12:00:00 23.7 11 Norte 21 Norte 0 1010.6 0.9 50
2019-10-08 11:00:00 22.3 10 Norte 22 Norte 0 1010.5 1.4 54
2019-10-08 10:00:00 21.2 13 Norte 21 Norte 0 1010.3 1.6 58
2019-10-08 09:00:00 18.8 10 Norte 15 Norte 0 1009.7 1 67
2019-10-08 08:00:00 15.6 11 Norte 22 Norte 0 1009.1 0.4 74
2019-10-08 07:00:00 15.9 14 Norte 24 Nordeste 0 1008.7 0.2 76
2019-10-08 06:00:00 16 14 Nordeste 21 Nordeste 0 1008.7 0.4 82
2019-10-08 05:00:00 14.8 13 Norte 21 Norte 0 1008.7 0.4 86
2019-10-08 04:00:00 16.5 15 Norte 24 Norte 0 1008.5 0.4 79
2019-10-08 03:00:00 17.2 18 Norte 28 Norte 0 1008.3 0.2 76
2019-10-08 02:00:00 17.7 23 Norte 33 Norte 0 1008.3 0.2 71
2019-10-08 01:00:00 17.7 24 Norte 42 Norte 0 1008.1 0.4 70
2019-10-08 00:00:00 18.2 28 Norte 39 Norte 0 1008.1 1.2 64
2019-10-07 23:00:00 18.4 29 Norte 45 Norte 0 1008.1 1.5 61
2019-10-07 22:00:00 18.2 28 Norte 48 Norte 0 1007.7 1.9 59
2019-10-07 21:00:00 18.3 38 Norte 58 Norte 0 1006.9 1.4 56
2019-10-07 20:00:00 18.2 33 Norte 65 Norte 0 1006.6 1.6 56
2019-10-07 19:00:00 18.3 50 Norte 68 Norte 0 1005.8 0.8 52
2019-10-07 18:00:00 19.1 50 Norte 74 Norte 0 1005.5 1.1 48
2019-10-07 17:00:00 20.2 50 Norte 82 Norte 0 1005 0.3 45
2019-10-07 16:00:00 20.7 53 Norte 82 Norte 0 1005 -0.3 44
2019-10-07 15:00:00 20.5 59 Norte 87 Norte 0 1004.4 -0.7 41
2019-10-07 14:00:00 20.7 53 Norte 98 Norte 0 1004.7 -0.6 41
2019-10-07 13:00:00 20.4 53 Norte 78 Norte 0 1005.3 0.4 43
2019-10-07 12:00:00 20.3 53 Norte 78 Norte 0 1005.1 0.8 47
2019-10-07 11:00:00 20 37 Norte 71 Norte 0 1005.3 1 50
2019-10-07 10:00:00 19 40 Norte 65 Norte 0 1004.9 0.7 58
2019-10-07 09:00:00 17.8 46 Norte 61 Norte 0 1004.3 0.5 61
2019-10-07 08:00:00 16.2 31 Norte 48 Norte 0.1 1004.3 0.4 79
2019-10-07 07:00:00 16.1 21 Norte 42 Norte 0.3 1004.2 0 89
2019-10-07 06:00:00 16.4 20 Norte 46 Norte 1.5 1003.8 -1.2 93
2019-10-07 05:00:00 18 23 Nordeste 32 Norte 0 1003.9 -1.7 88
2019-10-07 04:00:00 16.4 0 Calma 5 Nordeste 0 1004.2 -1.7 89
2019-10-07 03:00:00 16.5 4 Sudeste -- -- 0 1005 -1.6 88
2019-10-07 02:00:00 16.9 4 Sudeste 9 Sudeste 0 1005.6 -1.4 86
2019-10-07 01:00:00 17.8 -- -- -- -- 0 1005.9 -1.1 82
2019-10-07 00:00:00 18.8 8 Este 11 Este 0 1006.6 -0.3 78
2019-10-06 23:00:00 19.2 8 Nordeste -- -- 0 1007 0.3 76
2019-10-06 22:00:00 20.3 8 Este 15 Nordeste 0 1007 0.3 71
2019-10-06 21:00:00 20.2 8 Nordeste 15 Este 0 1006.9 0.3 71
2019-10-06 20:00:00 19.7 7 Nordeste 13 Nordeste 0 1006.7 0.3 72
2019-10-06 19:00:00 20.8 8 Nordeste 17 Este 0 1006.7 -0.3 67
2019-10-06 18:00:00 21.9 9 Nordeste 22 Norte 0 1006.6 -1.1 64
2019-10-06 17:00:00 22.6 11 Nordeste 26 Este 0 1006.4 -1.7 61
2019-10-06 16:00:00 22.7 13 Nordeste 26 Nordeste 0 1007 -1.7 62
2019-10-06 15:00:00 22.8 5 Nordeste 22 Nordeste 0 1007.7 -1.1 62
2019-10-06 14:00:00 22.7 15 Nordeste 28 Norte 0 1008.1 0 62
2019-10-06 13:00:00 22.1 20 Norte 33 Norte 0 1008.7 0.7 66
2019-10-06 12:00:00 21.5 19 Norte 26 Norte 0 1008.8 1.2 68
2019-10-06 11:00:00 21.3 17 Nordeste 26 Nordeste 0 1008.1 1.1 68
2019-10-06 10:00:00 20.8 15 Nordeste 26 Nordeste 0 1008 1 73
2019-10-06 09:00:00 19.5 13 Nordeste 17 Nordeste 0 1007.6 1.1 83
2019-10-06 08:00:00 17.2 12 Norte 13 Norte 0 1007 0.4 92
2019-10-06 07:00:00 16.9 10 Norte -- -- 0 1007 0.3 93
2019-10-06 06:00:00 17.3 11 Norte 15 Norte 0 1006.5 -0.4 90
2019-10-06 05:00:00 17.9 7 Norte -- -- 0 1006.6 -0.5 89
2019-10-06 04:00:00 17.1 9 Norte -- -- 0 1006.7 -0.2 88
2019-10-06 03:00:00 17 10 Norte 13 Norte 0 1006.9 -0.1 90
2019-10-06 02:00:00 16.3 12 Norte -- -- 0 1007.1 0.1 88
2019-10-06 01:00:00 16.3 -- -- -- -- 0 1006.9 0.2 86
2019-10-06 00:00:00 17 6 Norte 9 Nordeste 0 1007 0.5 85
2019-10-05 23:00:00 17.3 6 Norte 11 Nordeste 0 1007 0.9 84
2019-10-05 22:00:00 17.7 6 Nordeste 11 Norte 0 1006.7 -- 82
2019-10-05 21:00:00 19.2 8 Nordeste 15 Nordeste 0 1006.5 0.8 77
2019-10-05 20:00:00 19.6 9 Nordeste -- -- -- 1006.1 0.6 75
2019-10-05 19:00:00 -- -- -- -- -- -- -- -- --
2019-10-05 18:00:00 22.3 12 Este 24 Norte 0 1005.7 -0.3 64
2019-10-05 17:00:00 22.4 14 Nordeste 26 Nordeste 0 1005.5 -0.9 64
2019-10-05 16:00:00 23 18 Nordeste 26 Este 0 1005.7 -1 60
2019-10-05 15:00:00 23.3 17 Nordeste 28 Norte 0 1006 -0.5 59
2019-10-05 14:00:00 23.7 19 Este 30 Norte 0 1006.4 0.1 58
2019-10-05 13:00:00 22.8 19 Nordeste 30 Este 0 1006.7 1.1 63
2019-10-05 12:00:00 22.5 23 Nordeste 37 Nordeste 0 1006.5 1.3 63
2019-10-05 11:00:00 22.4 24 Nordeste 39 Nordeste 0 1006.3 1.1 64
2019-10-05 10:00:00 21.6 24 Nordeste 30 Nordeste 0 1005.6 0.7 69
2019-10-05 09:00:00 20.2 14 Nordeste 18 Nordeste 0 1005.2 0.5 81
2019-10-05 08:00:00 17.2 12 Norte 15 Norte 0 1005.2 0.3 94
2019-10-05 07:00:00 16.9 11 Norte 15 Norte 0 1004.9 -0.3 93
2019-10-05 06:00:00 16.3 7 Noroeste 11 Noroeste 0 1004.7 -0.4 92
2019-10-05 05:00:00 16 0 Calma 13 Norte 0 1004.9 -0.5 90
2019-10-05 04:00:00 16.9 12 Norte 15 Norte 0 1005.2 -0.2 88
2019-10-05 03:00:00 18.1 10 Oeste 13 Oeste 0 1005.1 -0.4 86
2019-10-05 02:00:00 19.2 10 Oeste 13 Oeste 0 1005.4 -0.1 82
2019-10-05 01:00:00 20.1 11 Oeste 17 Oeste 0 1005.4 -0.2 80
2019-10-05 00:00:00 20.6 12 Oeste 21 Oeste 0 1005.5 0 77
2019-10-04 23:00:00 21 13 Oeste 24 Sudoeste 0 1005.5 0.1 78
2019-10-04 22:00:00 21.2 15 Sudoeste 26 Sudoeste 0 1005.6 0.1 75
2019-10-04 21:00:00 21.2 15 Sudoeste 26 Sudoeste 0 1005.5 0.1 72
2019-10-04 20:00:00 21.2 17 Sudoeste 28 Sudoeste 0 1005.4 -0.3 72
2019-10-04 19:00:00 22.3 18 Sudoeste 30 Sudoeste 0 1005.5 -0.9 67
2019-10-04 18:00:00 23.4 19 Sudoeste 32 Sudoeste 0 1005.4 -1.4 58
2019-10-04 17:00:00 24 20 Sudoeste 32 Sudoeste 0 1005.7 -1.7 58
2019-10-04 16:00:00 24 20 Sudoeste 32 Sur 0 1006.4 -1.8 61
2019-10-04 15:00:00 24.1 19 Sudoeste 33 Sur 0 1006.8 -1.5 58
2019-10-04 14:00:00 23.6 15 Sudoeste 30 Sur 0 1007.4 -0.9 56
2019-10-04 13:00:00 23.7 16 Sur 26 Sur 0 1008.2 0 55
2019-10-04 12:00:00 23.4 12 Sur 21 Sur 0 1008.3 0.5 53
2019-10-04 11:00:00 23.1 10 Sur 24 Este 0 1008.3 1.1 49
2019-10-04 10:00:00 21.9 6 Sur 13 Sudeste 0 1008.2 1.4 61
2019-10-04 09:00:00 17.9 0 Calma 8 Noroeste 0 1007.8 1 85
2019-10-04 08:00:00 12.8 5 Noroeste 9 Noroeste 0 1007.2 0.2 94
2019-10-04 07:00:00 12.6 6 Noroeste -- -- 0 1006.8 -0.1 93
2019-10-04 06:00:00 13.2 -- -- -- -- 0 1006.8 0 93
2019-10-04 05:00:00 13.6 8 Noroeste 13 Norte 0 1007 0.3 92
2019-10-04 04:00:00 14.5 11 Norte 13 Norte 0 1006.9 -0.3 94
2019-10-04 03:00:00 14.7 6 Noroeste 13 Noroeste 0 1006.8 -0.7 92
2019-10-04 02:00:00 15.1 7 Oeste 15 Norte 0 1006.7 -0.5 91
2019-10-04 01:00:00 15.9 10 Norte 11 Norte 0 1007.2 0 90
2019-10-04 00:00:00 15.6 8 Noroeste 13 Noroeste 0 1007.5 0.9 88
2019-10-03 23:00:00 15.6 8 Oeste 11 Oeste 0 1007.2 1.3 86
2019-10-03 22:00:00 16.6 8 Noroeste 9 Noroeste 0 1007.2 1.3 86
2019-10-03 21:00:00 17.1 7 Norte 11 Norte 0 1006.6 1.1 82
2019-10-03 20:00:00 17.9 10 Norte 21 Norte 0 1005.9 0.6 78
2019-10-03 19:00:00 20.5 17 Norte 26 Norte 0 1005.9 0.5 69
2019-10-03 18:00:00 22 18 Norte 30 Norte 0 1005.5 0 64
2019-10-03 17:00:00 22.8 17 Norte 33 Norte 0 1005.3 -0.4 61
2019-10-03 16:00:00 24.1 13 Norte 30 Noroeste 0 1005.4 -0.8 54
2019-10-03 15:00:00 24 18 Norte 32 Norte 0 1005.5 -0.5 56
2019-10-03 14:00:00 23.1 16 Noroeste 30 Norte 0 1005.7 -0.3 57
2019-10-03 13:00:00 22.8 19 Norte 30 Norte 0 1006.2 0.5 59
2019-10-03 12:00:00 21.8 19 Norte 33 Norte 0 1006 0.7 63
2019-10-03 11:00:00 21.4 22 Norte 39 Norte 0 1006 1 63
2019-10-03 10:00:00 20.6 22 Norte 35 Norte 0 1005.7 1.1 65
2019-10-03 09:00:00 19.9 20 Norte 32 Norte 0 1005.3 0.6 66
2019-10-03 08:00:00 19.5 18 Norte 35 Norte 0 1005 0.3 65
2019-10-03 07:00:00 19.5 18 Norte 42 Norte 0 1004.6 -0.2 62
2019-10-03 06:00:00 20 25 Norte 45 Norte 0 1004.7 -0.3 59
2019-10-03 05:00:00 19.4 28 Norte 46 Norte 0 1004.7 -0.5 68
2019-10-03 04:00:00 19.4 28 Norte 48 Norte 0 1004.8 -0.6 68
2019-10-03 03:00:00 19.9 32 Norte 55 Norte 0 1005 -0.8 63
2019-10-03 02:00:00 20 37 Norte 55 Norte 0 1005.2 -0.2 65
2019-10-03 01:00:00 20 34 Norte 54 Norte 0 1005.4 0.5 64
2019-10-03 00:00:00 20.4 28 Norte 50 Norte 0 1005.8 1.8 61
2019-10-02 23:00:00 20.8 24 Norte 41 Norte 0 1005.4 1.9 60
2019-10-02 22:00:00 20.5 22 Norte 33 Norte 0 1004.9 1.8 66
2019-10-02 21:00:00 20.2 18 Norte 33 Norte 0 1004 1.3 70
2019-10-02 20:00:00 20.1 19 Norte 35 Norte 0 1003.5 0.8 72
2019-10-02 19:00:00 20.7 18 Norte 35 Norte 0 1003.1 0.6 70
2019-10-02 18:00:00 21.5 22 Norte 39 Norte 0 1002.7 0.4 65
2019-10-02 17:00:00 22.1 26 Norte 37 Nordeste 0 1002.7 0.4 64
2019-10-02 16:00:00 22.3 29 Norte 48 Norte 0 1002.5 -0.1 59
2019-10-02 15:00:00 22.3 34 Norte 54 Norte 0 1002.3 -0.3 60
2019-10-02 14:00:00 23.2 40 Norte 54 Norte 0 1002.3 0.1 58
2019-10-02 13:00:00 23.5 41 Nordeste 54 Nordeste 0 1002.6 0.8 54
2019-10-02 12:00:00 23.4 38 Nordeste 55 Nordeste 0 1002.6 1.4 54
2019-10-02 11:00:00 22.9 38 Nordeste 54 Norte 0 1002.2 1.6 56
2019-10-02 10:00:00 22.2 38 Nordeste 52 Nordeste 0 1001.8 1.3 56
2019-10-02 09:00:00 21.8 36 Nordeste 48 Norte 0 1001.2 1.2 56
2019-10-02 08:00:00 21.1 36 Nordeste 50 Nordeste 0 1000.6 0.5 65
2019-10-02 07:00:00 21.1 38 Nordeste 59 Nordeste 0 1000.5 0.4 68
2019-10-02 06:00:00 21.2 39 Nordeste 59 Norte 0 1000 0 67
2019-10-02 05:00:00 21.2 42 Norte 54 Norte 0 1000.1 0 81
2019-10-02 04:00:00 21.6 35 Norte 45 Norte 0 1000.1 0 86
2019-10-02 03:00:00 21.6 14 Norte 21 Norte 0 1000 -0.4 95
2019-10-02 02:00:00 21.1 13 Norte 17 Norte 0 1000.1 0.5 96
2019-10-02 01:00:00 21.1 6 Norte 13 Norte 0 1000.1 0.6 93
2019-10-02 00:00:00 22 10 Oeste 18 Oeste 0 1000.4 0.9 91
2019-10-01 23:00:00 22.1 12 Sudoeste 22 Sudoeste 0 999.6 0 91
2019-10-01 22:00:00 22 13 Sudoeste 21 Sudoeste 0 999.5 -0.1 91
2019-10-01 21:00:00 22.3 13 Sudoeste 22 Sudoeste 0 999.5 -0.4 90
2019-10-01 20:00:00 22.6 10 Sudoeste 17 Sudoeste 0 999.6 -0.6 89
2019-10-01 19:00:00 23.5 11 Sudoeste 21 Sudoeste 0 999.6 -1.1 82
2019-10-01 18:00:00 25.1 14 Sudoeste 24 Sur 0 999.9 -1.3 73
2019-10-01 17:00:00 25.6 17 Sudoeste 26 Sur 0 1000.2 -1.5 70
2019-10-01 16:00:00 25.6 19 Sudoeste 28 Sudoeste 0 1000.7 -1.8 71
2019-10-01 15:00:00 25.8 18 Sudoeste 32 Sur 0 1001.2 -1.9 69
2019-10-01 14:00:00 25.9 17 Sudoeste 30 Sudoeste 0 1001.7 -1.8 69
2019-10-01 13:00:00 25.2 15 Sudoeste 28 Sudoeste 0 1002.5 -0.6 73
2019-10-01 12:00:00 25.3 18 Sudoeste 26 Sudoeste 0 1003.1 0.1 72
2019-10-01 11:00:00 24.1 14 Sudoeste 22 Sudoeste 0 1003.5 0.5 76
2019-10-01 10:00:00 23.6 10 Sudoeste 18 Sudoeste 0 1003.1 0.1 79
2019-10-01 09:00:00 22.1 9 Sudoeste 18 Sudoeste 0 1003 -0.2 85
2019-10-01 08:00:00 19.7 8 Sudoeste 13 Oeste 0 1003 -0.6 93
2019-10-01 07:00:00 19.7 7 Sudoeste 9 Sudoeste 0 1003 -1.1 92
2019-10-01 06:00:00 20.6 8 Oeste 17 Oeste 0 1003.2 -1.5 90
2019-10-01 05:00:00 20.9 10 Oeste 17 Oeste 0 1003.6 -1.3 91
2019-10-01 04:00:00 21.2 8 Oeste 15 Oeste 0 1004.1 -1 93
2019-10-01 03:00:00 21.5 8 Sudoeste 21 Sudoeste 0 1004.7 -0.5 90
2019-10-01 02:00:00 21.7 13 Sudoeste 21 Oeste 0 1004.9 -0.5 90
2019-10-01 01:00:00 21.9 14 Sudoeste 24 Sudoeste 0 1005.1 -0.4 90
2019-10-01 00:00:00 21.7 13 Sudoeste 21 Sudoeste 0 1005.2 -0.3 91
2019-09-30 23:00:00 21.7 14 Sudoeste 22 Sudoeste 0 1005.4 0 90
2019-09-30 22:00:00 21.4 11 Sudoeste 15 Sudoeste 0 1005.5 0 90
2019-09-30 21:00:00 21.3 10 Sudoeste 13 Sudoeste 0 1005.5 0 89
2019-09-30 20:00:00 21.8 10 Sudoeste 15 Sudoeste 0 1005.4 -0.6 86
2019-09-30 19:00:00 23.8 11 Sudoeste 18 Sudoeste 0 1005.5 -1 77
2019-09-30 18:00:00 25 12 Sudoeste 22 Sudoeste 0 1005.5 -1.2 69
2019-09-30 17:00:00 25.3 13 Sudoeste 24 Oeste 0 1006 -1.4 69
2019-09-30 16:00:00 25.6 15 Sudoeste 24 Sudoeste 0 1006.5 -1.2 68
2019-09-30 15:00:00 26 15 Sudoeste 24 Sur 0 1006.7 -1 66
2019-09-30 14:00:00 25.9 14 Sudoeste 22 Sudoeste 0 1007.4 -0.4 68
2019-09-30 13:00:00 25.9 13 Sudoeste 22 Sudoeste 0 1007.7 0.2 69
2019-09-30 12:00:00 25.7 11 Oeste 18 Sudoeste 0 1007.7 0.5 70
2019-09-30 11:00:00 25.5 3 Noroeste 13 Noroeste 0 1007.8 0.8 67
2019-09-30 10:00:00 23.6 7 Noroeste 11 Oeste 0 1007.5 0.6 78
2019-09-30 09:00:00 21.7 5 Oeste 11 Noroeste 0 1007.2 0.5 91
2019-09-30 08:00:00 19.2 8 Noroeste 13 Noroeste 0 1007 0.5 96
2019-09-30 07:00:00 19.3 10 Noroeste 13 Noroeste 0 1006.9 0 96
2019-09-30 06:00:00 20.1 8 Oeste 13 Oeste 0 1006.7 -0.4 94
2019-09-30 05:00:00 20.7 8 Sudoeste 15 Sudoeste 0 1006.5 -0.7 93
2019-09-30 04:00:00 21.3 9 Oeste 17 Oeste 0 1006.9 0 91
2019-09-30 03:00:00 21.5 13 Sudoeste 22 Sudoeste 0 1007.1 0.1 90
2019-09-30 02:00:00 22 17 Sudoeste 26 Sudoeste 0 1007.2 0.3 90
2019-09-30 01:00:00 22.1 15 Sudoeste 24 Sudoeste 0 1006.9 0 92
2019-09-30 00:00:00 22 15 Sudoeste 26 Sudoeste 0 1007 0.4 92
2019-09-29 23:00:00 22.2 15 Sudoeste 30 Sudoeste 0 1006.9 0.4 91
2019-09-29 22:00:00 22.3 17 Sudoeste 30 Sudoeste 0 1006.9 0.4 89
2019-09-29 21:00:00 22.6 18 Sudoeste 26 Sudoeste 0 1006.6 -0.1 87
2019-09-29 20:00:00 22.7 15 Sudoeste 26 Sudoeste 0 1006.5 -0.5 86
2019-09-29 19:00:00 23.3 18 Sudoeste 30 Sudoeste 0 1006.5 -0.8 82
2019-09-29 18:00:00 24.9 18 Sudoeste 28 Sur 0 1006.7 -1.1 74
2019-09-29 17:00:00 25.4 17 Sudoeste 26 Sur 0 1007 -1.3 70
2019-09-29 16:00:00 25.6 17 Sudoeste 28 Sur 0 1007.3 -1.5 69
2019-09-29 15:00:00 25.6 16 Sudoeste 26 Sudoeste 0 1007.8 -1.3 68
2019-09-29 14:00:00 25.8 14 Sudoeste 26 Sur 0 1008.3 -0.8 67
2019-09-29 13:00:00 25.3 16 Sudoeste 24 Sudoeste 0 1008.8 0 68
2019-09-29 12:00:00 25.4 15 Sudoeste 24 Oeste 0 1009.1 0.7 67
2019-09-29 11:00:00 24.7 16 Sudoeste 24 Sudoeste 0 1009.1 0.9 69
2019-09-29 10:00:00 23.7 12 Sudoeste 18 Sudoeste 0 1008.8 0.7 76
2019-09-29 09:00:00 22.3 8 Sudoeste 13 Sudoeste 0 1008.4 0.1 87
2019-09-29 08:00:00 20.3 9 Sudoeste 13 Sudoeste 0 1008.2 -0.1 92
2019-09-29 07:00:00 20.1 9 Sudoeste 13 Sudoeste 0 1008.1 -0.5 93
2019-09-29 06:00:00 20.4 9 Sudoeste 18 Sudoeste 0 1008.3 -0.8 93
2019-09-29 05:00:00 20 11 Sudoeste 15 Sudoeste 0 1008.3 -1 94
2019-09-29 04:00:00 18.8 10 Sudoeste 13 Sudoeste 0 1008.6 -1 95
2019-09-29 03:00:00 18.5 10 Sudoeste 11 Sudoeste 0 1009.1 -0.9 94
2019-09-29 02:00:00 18.9 6 Sudoeste 8 Sudoeste 0 1009.3 -0.8 94
2019-09-29 01:00:00 19.4 5 Sudoeste 9 Sudoeste 0 1009.6 -0.5 91
2019-09-29 00:00:00 20.3 7 Sudoeste 11 Sudoeste 0 1010 0.1 89
2019-09-28 23:00:00 20.6 8 Sudoeste 11 Sudoeste 0 1010.1 0.3 89
2019-09-28 22:00:00 21.2 6 Sudoeste 11 Sudoeste 0 1010.1 0.3 88
2019-09-28 21:00:00 21.5 7 Sudoeste -- -- 0 1009.9 0.3 85
2019-09-28 20:00:00 22.5 6 Sudoeste 15 Sudoeste 0 1009.8 0.1 81
2019-09-28 19:00:00 24.2 10 Sudoeste 17 Sudoeste 0 1009.8 -0.3 74
2019-09-28 18:00:00 25.2 11 Sudoeste 24 Sudoeste 0 1009.6 -0.8 71
2019-09-28 17:00:00 25.7 14 Sudoeste 24 Sudoeste 0 1009.7 -1 69
2019-09-28 16:00:00 26 15 Sudoeste 26 Sudoeste 0 1010.1 -1 68
2019-09-28 15:00:00 26.3 14 Sudoeste 24 Sudoeste 0 1010.4 -0.7 65
2019-09-28 14:00:00 26.4 13 Sur 22 Sur 0 1010.7 -0.4 63
2019-09-28 13:00:00 26.1 11 Sur 18 Sur 0 1011.1 0.3 65
2019-09-28 12:00:00 27.1 8 Sudoeste 17 Sur 0 1011.1 1.1 60
2019-09-28 11:00:00 24.8 2 Sudoeste 11 Norte 0 1011.1 1.4 66
2019-09-28 10:00:00 25.8 3 Norte 8 Norte 0 1010.8 1.1 65
2019-09-28 09:00:00 22.3 3 Noroeste 8 Noroeste 0 1010 0.5 85
2019-09-28 08:00:00 19.1 8 Norte 9 Norte 0 1009.7 0.2 95
2019-09-28 07:00:00 19.4 9 Noroeste 13 Norte 0 1009.7 0.3 94
2019-09-28 06:00:00 19 11 Norte -- -- 0 1009.5 0 95
2019-09-28 05:00:00 19.4 4 Norte 8 Norte 0 1009.5 0 93
2019-09-28 04:00:00 20.6 4 Noroeste 15 Sudoeste 0 1009.4 0.2 90
2019-09-28 03:00:00 21.2 13 Sudoeste 15 Sudoeste 0 1009.5 0.2 88
2019-09-28 02:00:00 21.5 11 Sudoeste 17 Sudoeste 0 1009.5 0.2 87
2019-09-28 01:00:00 21.5 12 Sudoeste 17 Sudoeste 0 1009.2 0.1 87
2019-09-28 00:00:00 21.6 10 Sudoeste 15 Sudoeste 0 1009.3 0.6 86
2019-09-27 23:00:00 21.9 11 Sur 17 Sudoeste 0 1009.3 0.9 85
2019-09-27 22:00:00 21.8 11 Sudoeste 15 Sudoeste 0 1009.1 0.7 84
2019-09-27 21:00:00 21.7 11 Sur 21 Sur 0 1008.7 0.6 84
2019-09-27 20:00:00 22.2 11 Sur 18 Sudoeste 0 1008.4 0.3 81
2019-09-27 19:00:00 24.1 14 Sur 24 Sur 0 1008.4 0.1 72
2019-09-27 18:00:00 25.1 19 Sur 28 Sur 0 1008.1 -0.6 69
2019-09-27 17:00:00 25.2 18 Sudoeste 30 Sur 0 1008.1 -1 67
2019-09-27 16:00:00 25.9 18 Sur 30 Sudoeste 0 1008.3 -1.1 65
2019-09-27 15:00:00 26.1 17 Sur 28 Sur 0 1008.7 -1 64
2019-09-27 14:00:00 26 18 Sur 28 Sur 0 1009.1 -0.8 65
2019-09-27 13:00:00 25.6 15 Sudoeste 26 Sur 0 1009.4 -0.1 68
2019-09-27 12:00:00 25.3 15 Sudoeste 22 Sudoeste 0 1009.7 0.4 67
2019-09-27 11:00:00 25 12 Sudoeste 18 Sudoeste 0 1009.9 0.8 68
2019-09-27 10:00:00 24.2 11 Sudoeste 21 Sudoeste 0 1009.5 0.8 72
2019-09-27 09:00:00 22.4 3 Oeste 9 Sudoeste 0 1009.3 0.7 82
2019-09-27 08:00:00 18 5 Oeste 8 Sudoeste 0 1009.1 0.4 92
2019-09-27 07:00:00 18.7 5 Sudoeste 11 Sudoeste 0 1008.7 0 92
2019-09-27 06:00:00 19.1 7 Sudoeste 11 Oeste 0 1008.6 -0.6 87
2019-09-27 05:00:00 20.2 8 Sudoeste 13 Sudoeste 0 1008.7 -0.8 86
2019-09-27 04:00:00 20.7 9 Sudoeste 15 Sudoeste 0 1008.7 -0.9 85
2019-09-27 03:00:00 20.8 9 Sudoeste 13 Sudoeste 0 1009.2 -0.5 85
2019-09-27 02:00:00 21 10 Sudoeste 15 Sudoeste 0 1009.5 -0.2 85
2019-09-27 01:00:00 21.2 11 Sudoeste 15 Sudoeste 0 1009.6 -0.2 82
2019-09-27 00:00:00 21.2 10 Sudoeste 17 Sudoeste 0 1009.7 0.2 80
2019-09-26 23:00:00 21 12 Sudoeste 17 Sur 0 1009.7 0.7 81
2019-09-26 22:00:00 20.8 8 Sudoeste 15 Sur 0 1009.8 0.8 79
2019-09-26 21:00:00 20.8 8 Sudoeste 13 Sudoeste 0 1009.5 0.7 78
2019-09-26 20:00:00 21.7 9 Sudoeste 17 Sudoeste 0 1009 0.1 74
2019-09-26 19:00:00 23.8 11 Sudoeste 21 Sudoeste 0 1009 0 63
2019-09-26 18:00:00 24.9 11 Sudoeste 22 Sudoeste 0 1008.8 -0.4 59
2019-09-26 17:00:00 24.9 15 Sudoeste 26 Sudoeste 0 1008.9 -0.9 59
2019-09-26 16:00:00 25.3 17 Sudoeste 28 Sudoeste 0 1009 -1.2 59
2019-09-26 15:00:00 24.9 16 Sudoeste 30 Sudoeste 0 1009.2 -1.1 61
2019-09-26 14:00:00 24.7 14 Sudoeste 28 Sudoeste 0 1009.8 -0.4 62
2019-09-26 13:00:00 25 13 Sudoeste 24 Sudoeste 0 1010.2 0.3 59
2019-09-26 12:00:00 24.9 10 Sudoeste 18 Sur 0 1010.3 1 54
2019-09-26 11:00:00 23.4 0 Calma 13 Norte 0 1010.2 1.5 60
2019-09-26 10:00:00 23.6 2 Nordeste 8 Norte 0 1009.9 1.6 66
2019-09-26 09:00:00 21.1 6 Norte 9 Norte 0 1009.3 1.3 77
2019-09-26 08:00:00 -- 8 Norte -- -- 0 1008.7 1.2 --
2019-09-26 07:00:00 17.2 10 Norte 13 Norte 0 1008.3 1 88
2019-09-26 06:00:00 17.2 12 Norte -- -- 0 1008 0.4 88
2019-09-26 05:00:00 16.9 9 Nordeste -- -- 0 1007.5 -0.2 88
2019-09-26 04:00:00 17 10 Norte 11 Norte 0 1007.3 -0.3 87
2019-09-26 03:00:00 17.7 10 Norte 11 Norte 0 1007.6 0.1 85
2019-09-26 02:00:00 17.5 9 Norte 11 Norte 0 1007.7 0.5 86
2019-09-26 01:00:00 17.8 9 Norte 13 Nordeste 0 1007.6 0.8 84
2019-09-26 00:00:00 18.6 11 Nordeste 15 Nordeste 0 1007.5 1.4 83
2019-09-25 23:00:00 19.8 12 Nordeste 22 Nordeste 0 1007.2 1.7 78
2019-09-25 22:00:00 20.3 14 Nordeste 22 Norte 0 1006.8 1.7 75
2019-09-25 21:00:00 20.6 17 Nordeste 22 Nordeste 0 1006.1 1.2 79
2019-09-25 20:00:00 20.8 16 Nordeste 32 Nordeste 0 1005.5 0.8 77
2019-09-25 19:00:00 21.7 26 Nordeste 37 Nordeste 0 1005.1 0.3 74
2019-09-25 18:00:00 22.7 29 Nordeste 42 Nordeste 0 1004.9 0.3 71
2019-09-25 17:00:00 23.2 33 Nordeste 45 Nordeste 0 1004.7 0.2 67
2019-09-25 16:00:00 23.5 30 Nordeste 41 Norte 0 1004.8 0.1 68
2019-09-25 15:00:00 24 32 Nordeste 45 Nordeste 0 1004.6 -0.4 71
2019-09-25 14:00:00 24.6 21 Nordeste 30 Nordeste 0 1004.5 -0.3 74
2019-09-25 13:00:00 23.7 13 Este 21 Este 0 1004.7 0.5 77
2019-09-25 12:00:00 24.2 8 Este 15 Nordeste 0 1005 1.2 78
2019-09-25 11:00:00 26.5 5 Sudoeste 13 Oeste 0 1004.8 1.2 66
2019-09-25 10:00:00 24.3 0 Calma 11 Sudoeste 0 1004.2 0.9 77
2019-09-25 09:00:00 22.7 0 Calma 13 Este 0 1003.8 0.5 90
2019-09-25 08:00:00 18.6 5 Nordeste 8 Este 0 1003.6 0.1 98
2019-09-25 07:00:00 17.7 4 Sudoeste 8 Sudoeste 0 1003.3 -0.5 97
2019-09-25 06:00:00 -- 8 Oeste -- -- 0 1003.3 -0.8 --
2019-09-25 05:00:00 17.7 8 Sudoeste 9 Sudoeste 0 1003.5 -0.8 94
2019-09-25 04:00:00 18.5 6 Sudoeste 8 Sudoeste 0 1003.8 -0.9 93
2019-09-25 03:00:00 19.5 3 Sudoeste 9 Oeste 0 1004.1 -1 94
2019-09-25 02:00:00 19.9 8 Oeste 11 Oeste 0 1004.3 -0.8 93
2019-09-25 01:00:00 20.8 6 Oeste 11 Oeste 0 1004.7 -0.2 91
2019-09-25 00:00:00 21.8 9 Oeste 22 Oeste 0 1005.1 0.3 88
2019-09-24 23:00:00 22.6 14 Oeste 32 Sudoeste 0 1005.1 0.8 87
2019-09-24 22:00:00 22.9 19 Sudoeste 32 Sudoeste 0 1004.9 0.6 86
2019-09-24 21:00:00 23 21 Sudoeste 37 Sudoeste 0 1004.8 0.1 85
2019-09-24 20:00:00 23 22 Sudoeste 39 Sudoeste 0 1004.3 -0.7 85
2019-09-24 19:00:00 24.2 23 Sudoeste 41 Sudoeste 0 1004.3 -1.1 79
2019-09-24 18:00:00 24.8 26 Sudoeste 41 Sudoeste 0 1004.7 -1.2 77
2019-09-24 17:00:00 25.7 23 Sudoeste 37 Sudoeste 0 1005 -1.7 74
2019-09-24 16:00:00 25.7 26 Sudoeste 35 Sudoeste 0 1005.4 -1.7 71
2019-09-24 15:00:00 25.6 24 Sudoeste 33 Sudoeste 0 1005.9 -1.4 67
2019-09-24 14:00:00 25.8 20 Sudoeste 35 Sudoeste 0 1006.7 -0.9 69
2019-09-24 13:00:00 25.3 22 Sudoeste 32 Sudoeste 0 1007.1 -0.1 68
2019-09-24 12:00:00 24.8 24 Sudoeste 33 Sudoeste 0 1007.3 0.4 68
2019-09-24 11:00:00 24.6 21 Sudoeste 33 Oeste 0 1007.6 0.8 69
2019-09-24 10:00:00 23.8 20 Sudoeste 30 Sudoeste 0 1007.2 0.5 73
2019-09-24 09:00:00 22.9 15 Oeste 26 Oeste 0 1006.9 0.1 77
2019-09-24 08:00:00 21.1 13 Oeste 21 Oeste 0 1006.8 -0.4 87
2019-09-24 07:00:00 20.7 11 Sudoeste 17 Oeste 0 1006.7 -0.9 90
2019-09-24 06:00:00 20.6 11 Oeste 21 Sudoeste 0 1006.8 -1.4 88
2019-09-24 05:00:00 20.2 13 Sudoeste 21 Sudoeste 0 1007.2 -1.4 88
2019-09-24 04:00:00 19.8 11 Oeste 15 Oeste 0 1007.6 -1.1 87
2019-09-24 03:00:00 19.4 9 Oeste 13 Oeste 0 1008.2 -0.9 86
2019-09-24 02:00:00 18.8 10 Sudoeste 13 Oeste 0 1008.6 -0.6 88
2019-09-24 01:00:00 18.2 9 Sudoeste 13 Sudoeste 0 1008.7 -0.4 86
2019-09-24 00:00:00 18.3 10 Sudoeste 13 Sudoeste 0 1009.1 0.3 85
2019-09-23 23:00:00 17.3 7 Sudoeste -- -- 0 1009.2 1 84
2019-09-23 22:00:00 18.5 3 Sur 11 Norte 0 1009.1 1 78
2019-09-23 21:00:00 19.6 10 Norte 13 Norte 0 1008.8 0.8 72
2019-09-23 20:00:00 20.3 12 Norte 15 Norte 0 1008.2 0.3 69
2019-09-23 19:00:00 22.1 12 Nordeste 18 Nordeste 0 1008.1 0.1 64
2019-09-23 18:00:00 23.6 14 Norte 24 Nordeste 0 1008 -0.3 58
2019-09-23 17:00:00 24.2 16 Nordeste 28 Nordeste 0 1007.9 -0.6 54
2019-09-23 16:00:00 25.1 11 Nordeste 24 Nordeste 0 1008 -0.6 51
2019-09-23 15:00:00 25.2 9 Norte 24 Norte 0 1008.3 -0.8 51
2019-09-23 14:00:00 24.1 16 Nordeste 30 Nordeste 0 1008.5 -0.7 58
2019-09-23 13:00:00 24.3 14 Nordeste 28 Norte 0 1008.6 0 59
2019-09-23 12:00:00 23.4 19 Nordeste 32 Nordeste 0 1009.1 1.2 66
2019-09-23 11:00:00 23.2 22 Nordeste 32 Norte 0 1009.2 1.9 67
2019-09-23 10:00:00 22.7 22 Nordeste 33 Nordeste 0 1008.6 1.8 70
2019-09-23 09:00:00 21.3 22 Nordeste 32 Nordeste 0 1007.9 1.9 73
2019-09-23 08:00:00 20.3 24 Nordeste 33 Nordeste 0 1007.3 1.4 75
2019-09-23 07:00:00 20.1 19 Norte 30 Nordeste 0 1006.8 1.1 77
2019-09-23 06:00:00 20.5 23 Norte 35 Norte 0 1006 0.4 79
2019-09-23 05:00:00 21 24 Norte 32 Norte 0 1005.9 0.4 87
2019-09-23 04:00:00 21.8 19 Norte 26 Norte 0 1005.7 0.6 91
2019-09-23 03:00:00 22.3 6 Noroeste 13 Oeste 0 1005.6 0.7 90
2019-09-23 02:00:00 22.4 6 Oeste 21 Oeste 0 1005.5 1.1 90
2019-09-23 01:00:00 22.7 14 Oeste 28 Oeste 0 1005.1 0.7 88
2019-09-23 00:00:00 22.9 17 Sudoeste 28 Sudoeste 0 1004.9 1.1 87
2019-09-22 23:00:00 23.1 17 Sudoeste 26 Sudoeste 0 1004.4 1.2 87
2019-09-22 22:00:00 23.2 15 Sudoeste 26 Sudoeste 0 1004.4 1.4 87
2019-09-22 21:00:00 23.4 18 Sudoeste 35 Sudoeste 0 1003.8 1 87
2019-09-22 20:00:00 23.6 21 Sudoeste 37 Sudoeste 0 1003.2 0.5 85
2019-09-22 19:00:00 24.2 18 Sudoeste 32 Sudoeste 0 1003 0 83
2019-09-22 18:00:00 25.1 22 Sudoeste 32 Sudoeste 0 1002.8 0 80
2019-09-22 17:00:00 26.1 19 Sudoeste 28 Sudoeste 0 1002.7 -0.4 77
2019-09-22 16:00:00 26.5 17 Sudoeste 28 Sur 0 1003 -0.1 76
2019-09-22 15:00:00 26.7 19 Sudoeste 28 Sudoeste 0 1002.8 -0.5 74
2019-09-22 14:00:00 25.6 16 Sudoeste 24 Oeste 0 1003.1 -0.1 74
2019-09-22 13:00:00 26.6 15 Sudoeste 24 Oeste 0 1003.1 0 72
2019-09-22 12:00:00 25.4 13 Sudoeste 22 Sudoeste 0 1003.3 0.9 74
2019-09-22 11:00:00 25.8 9 Oeste 21 Oeste 0 1003.2 1.3 76
2019-09-22 10:00:00 23.9 15 Oeste 28 Oeste 0 1003.1 1.6 85
2019-09-22 09:00:00 23 12 Oeste 21 Oeste 0 1002.4 1.1 91
2019-09-22 08:00:00 21.7 13 Oeste 21 Oeste 0 1001.9 0.8 94
2019-09-22 07:00:00 22.2 12 Oeste 28 Oeste 0 1001.5 0.5 93
2019-09-22 06:00:00 22.2 15 Oeste 24 Oeste 0 1001.3 0.5 94
2019-09-22 05:00:00 22.7 14 Oeste 24 Oeste 0 1001.1 -0.2 95
2019-09-22 04:00:00 22.4 10 Oeste 15 Oeste 0 1001 -0.1 95
2019-09-22 03:00:00 22.9 9 Oeste 13 Oeste 0 1000.8 -0.9 97
2019-09-22 02:00:00 23.2 7 Sudoeste 11 Sudoeste 0 1001.3 -0.2 96
2019-09-22 01:00:00 23.5 8 Sudoeste 15 Sur 0 1001.1 -0.4 96
2019-09-22 00:00:00 23.2 0 Calma 22 Sudeste 0 1001.7 0.7 95